Banner, Wyoming
Current Conditions -  °F | °C
As of 10:53 AM on Sunday 25 Jan 2015 (Local Time) from KSHR Reporting Station
Clear Clear  
Wind Chill: 36°   Ceiling: Unl
Heat Index: 41°   Visibility: 10mi
Dew Point: 33°   Wind: 7mph
Humidity: 73%   Direction: 180°S
Pressure: 30.03"   Gusts: NA
Location:  44.6°N, 106.87°W
Report Text: KSHR 251753Z AUTO 18006KT 10SM CLR 05/01 A3003 RMK AO2 SLP190 T00500006 10056 20006 58006
Loading
Personal Weather Stations






























Interactive Weather Map New forecast layout! Learn more

10-Day Weather Forecast

Advertisements
Track Severe Weather on mobile